Time;durP1;ratioP1;P1;durP2;ratioP2;P2;SDS_P1;SDS_P2;PMS_P1;PMS_P2;Temp;Humidity;BMP_temperature;BMP_pressure;BME280_temperature;BME280_humidity;BME280_pressure;Samples;Min_cycle;Max_cycle;Signal;HPM_P1;HPM_P2
2023/02/27 00:02:12;;;;;;;2.83;1.30;;;;;;;16.10;58.19;103083.53;6263254;22;20026;-80
2023/02/27 00:04:37;;;;;;;2.17;1.10;;;;;;;16.07;58.17;103083.44;6285509;22;20014;-80
2023/02/27 00:07:03;;;;;;;2.58;1.00;;;;;;;16.08;58.22;103081.72;6285549;22;20010;-80
2023/02/27 00:09:28;;;;;;;3.17;1.30;;;;;;;16.07;58.01;103087.75;6285239;22;20007;-80
2023/02/27 00:11:53;;;;;;;2.40;1.20;;;;;;;16.07;58.29;103082.53;6234344;22;20343;-79
2023/02/27 00:14:19;;;;;;;2.45;1.13;;;;;;;16.07;58.32;103088.66;6284932;22;20007;-80
2023/02/27 00:16:44;;;;;;;2.90;1.10;;;;;;;16.07;58.47;103087.75;6284455;22;20003;-80
2023/02/27 00:19:11;;;;;;;3.55;1.10;;;;;;;16.04;58.06;103084.22;6284591;22;20031;-79
2023/02/27 00:21:36;;;;;;;2.17;1.00;;;;;;;16.05;58.31;103082.53;6259358;22;20033;-80
2023/02/27 00:24:02;;;;;;;3.15;1.30;;;;;;;16.03;58.10;103079.88;6284463;22;20007;-80
2023/02/27 00:26:28;;;;;;;3.08;1.00;;;;;;;16.04;58.00;103088.53;6259214;22;20446;-80
2023/02/27 00:28:53;;;;;;;1.92;0.80;;;;;;;16.04;57.75;103085.94;6311811;22;20003;-80
2023/02/27 00:31:19;;;;;;;2.75;0.95;;;;;;;16.03;58.18;103085.06;6266333;22;20510;-80
2023/02/27 00:33:44;;;;;;;3.25;1.10;;;;;;;16.02;58.09;103080.69;6271048;22;20106;-80
2023/02/27 00:36:09;;;;;;;2.78;1.00;;;;;;;16.03;58.40;103086.78;6241133;22;20030;-80
2023/02/27 00:38:35;;;;;;;2.75;0.90;;;;;;;16.01;58.10;103089.31;6263643;22;20420;-79
2023/02/27 00:41:01;;;;;;;2.35;1.00;;;;;;;16.02;58.26;103085.00;6263365;22;20011;-79
2023/02/27 00:43:27;;;;;;;2.00;1.10;;;;;;;16.01;58.18;103093.63;6262170;22;20023;-80
2023/02/27 00:45:52;;;;;;;2.03;1.00;;;;;;;16.00;58.43;103092.75;6261675;22;20026;-79
2023/02/27 00:48:17;;;;;;;2.42;1.05;;;;;;;15.99;58.05;103087.50;6235427;22;20435;-80
2023/02/27 00:50:43;;;;;;;1.88;1.05;;;;;;;15.99;58.06;103090.09;6260173;22;20073;-80
2023/02/27 00:53:09;;;;;;;2.17;1.10;;;;;;;15.98;57.87;103097.03;6260089;22;20436;-79
2023/02/27 00:55:34;;;;;;;3.20;0.90;;;;;;;15.99;57.96;103088.38;6259601;22;20015;-79
2023/02/27 00:58:03;;;;;;;2.45;0.85;;;;;;;15.98;57.97;103094.44;6260271;22;20007;-80
2023/02/27 01:00:28;;;;;;;2.58;1.10;;;;;;;15.97;58.08;103092.63;6285166;22;20010;-80
2023/02/27 01:02:54;;;;;;;2.63;1.00;;;;;;;15.97;58.09;103089.16;6285135;22;20019;-80
2023/02/27 01:05:20;;;;;;;2.33;1.08;;;;;;;15.98;57.95;103090.91;6285895;22;20007;-80
2023/02/27 01:07:45;;;;;;;2.03;1.05;;;;;;;15.98;57.91;103083.13;6259268;22;20003;-80
2023/02/27 01:10:12;;;;;;;2.40;0.90;;;;;;;15.95;57.96;103081.31;6296270;22;20039;-80
2023/02/27 01:12:37;;;;;;;2.25;1.00;;;;;;;15.95;57.87;103083.91;6300711;22;20007;-80
2023/02/27 01:15:04;;;;;;;3.30;1.10;;;;;;;15.96;58.08;103090.91;6293172;22;20007;-80
2023/02/27 01:17:31;;;;;;;2.80;1.10;;;;;;;15.96;57.82;103089.97;6315804;22;20007;-79
2023/02/27 01:19:57;;;;;;;1.80;0.95;;;;;;;15.96;57.97;103077.00;6314254;22;20433;-79
2023/02/27 01:22:23;;;;;;;2.10;1.00;;;;;;;15.94;58.00;103082.16;6261562;22;20011;-79
2023/02/27 01:24:48;;;;;;;1.65;1.00;;;;;;;15.95;57.67;103080.44;6286387;22;20069;-80
2023/02/27 01:27:14;;;;;;;2.42;0.88;;;;;;;15.93;57.97;103082.97;6285537;22;20011;-80
2023/02/27 01:29:39;;;;;;;2.30;1.02;;;;;;;15.94;57.86;103078.66;6285690;22;20011;-80
2023/02/27 01:32:05;;;;;;;2.60;1.00;;;;;;;15.94;57.72;103076.06;6260143;22;20015;-80
2023/02/27 01:34:30;;;;;;;2.60;1.10;;;;;;;15.91;57.91;103070.78;6286012;22;20487;-80
2023/02/27 01:36:56;;;;;;;2.20;1.10;;;;;;;15.94;57.69;103074.38;6285905;22;20003;-80
2023/02/27 01:39:21;;;;;;;1.48;0.80;;;;;;;15.92;57.73;103060.47;6261116;22;20070;-80
2023/02/27 01:41:47;;;;;;;1.77;1.00;;;;;;;15.94;57.57;103064.00;6285093;22;20439;-80
2023/02/27 01:44:13;;;;;;;2.33;0.90;;;;;;;15.91;57.55;103058.69;6259045;22;20011;-80
2023/02/27 01:46:39;;;;;;;1.95;0.90;;;;;;;15.91;57.71;103061.28;6288034;22;20006;-81
2023/02/27 01:49:23;;;;;;;4.18;1.00;;;;;;;15.91;57.75;103060.41;6300373;22;20003;-81
2023/02/27 01:51:53;;;;;;;2.85;1.15;;;;;;;15.90;58.02;103064.72;6290932;22;20014;-80
2023/02/27 01:54:21;;;;;;;1.88;0.93;;;;;;;15.89;58.07;103064.66;6317691;22;20045;-80
2023/02/27 01:56:47;;;;;;;1.88;1.02;;;;;;;15.89;57.88;103064.66;6288825;22;20015;-80
2023/02/27 01:59:14;;;;;;;1.33;0.80;;;;;;;15.89;58.00;103064.66;6287912;22;20003;-80
2023/02/27 02:01:40;;;;;;;2.78;0.90;;;;;;;15.89;57.49;103062.94;6260834;22;20023;-80
2023/02/27 02:04:20;;;;;;;2.58;1.00;;;;;;;15.90;57.47;103062.13;6259691;22;20081;-80
2023/02/27 02:06:55;;;;;;;1.33;0.80;;;;;;;15.91;57.34;103068.19;6286856;22;20006;-80
2023/02/27 02:09:22;;;;;;;1.98;1.00;;;;;;;15.90;57.21;103069.91;6283545;22;20038;-80
2023/02/27 02:11:48;;;;;;;2.38;0.90;;;;;;;15.91;57.23;103068.19;6258751;22;20086;-80
2023/02/27 02:14:13;;;;;;;1.73;0.73;;;;;;;15.89;57.01;103073.31;6283213;22;20002;-80
2023/02/27 02:17:03;;;;;;;2.55;1.10;;;;;;;15.90;57.18;103066.44;6257555;22;20011;-80
2023/02/27 02:19:53;;;;;;;1.98;0.73;;;;;;;15.89;57.02;103072.44;6282832;22;20007;-80
2023/02/27 02:22:37;;;;;;;1.75;0.75;;;;;;;15.90;57.05;103071.63;6282907;22;20424;-80
2023/02/27 02:25:33;;;;;;;1.20;0.75;;;;;;;15.89;57.09;103070.72;6282402;22;20057;-80
2023/02/27 02:28:11;;;;;;;2.67;0.88;;;;;;;15.90;56.92;103069.91;6282468;22;20101;-80
2023/02/27 02:30:45;;;;;;;3.33;1.00;;;;;;;15.89;56.89;103073.31;6282429;22;20003;-80
2023/02/27 02:33:34;;;;;;;1.40;0.73;;;;;;;15.89;56.83;103067.25;6282610;22;20007;-80
2023/02/27 02:36:09;;;;;;;1.33;0.82;;;;;;;15.90;56.72;103069.03;6282683;22;20019;-79
2023/02/27 02:38:57;;;;;;;1.35;0.77;;;;;;;15.90;56.65;103064.72;6282704;22;20432;-80
2023/02/27 02:41:54;;;;;;;2.03;0.90;;;;;;;15.90;56.64;103080.28;6266595;22;20021;-80
2023/02/27 02:44:50;;;;;;;1.75;0.88;;;;;;;15.89;56.44;103078.50;6282664;22;20415;-80
2023/02/27 02:47:26;;;;;;;1.27;0.70;;;;;;;15.90;56.67;103077.69;6284087;22;20007;-79
2023/02/27 02:50:10;;;;;;;2.03;0.80;;;;;;;15.89;56.79;103075.91;6284042;22;20007;-80
2023/02/27 02:52:41;;;;;;;;;;;;;;;15.89;56.33;103077.63;6283369;22;20363;-80
2023/02/27 02:55:25;;;;;;;1.35;0.80;;;;;;;15.90;56.76;103075.09;6283408;22;19902;-80
2023/02/27 02:58:08;;;;;;;1.88;0.80;;;;;;;15.90;56.47;103077.69;6283182;22;20427;-80
2023/02/27 03:00:58;;;;;;;1.80;0.60;;;;;;;15.90;56.56;103074.22;6283066;22;20379;-80
2023/02/27 03:03:30;;;;;;;1.83;0.80;;;;;;;15.89;56.50;103081.09;6289858;22;20258;-80
2023/02/27 03:06:07;;;;;;;1.48;0.70;;;;;;;15.89;56.44;103078.50;6299817;22;20000;-80
2023/02/27 03:08:41;;;;;;;0.82;0.60;;;;;;;15.90;56.36;103079.41;6319850;22;20006;-80
2023/02/27 03:11:07;;;;;;;1.38;0.70;;;;;;;15.90;56.32;103084.63;6286728;22;20030;-80
2023/02/27 03:13:45;;;;;;;2.17;0.80;;;;;;;15.90;56.40;103080.28;6286266;22;19999;-80
2023/02/27 03:16:24;;;;;;;1.45;0.75;;;;;;;15.90;56.34;103090.69;6285426;22;20000;-80
2023/02/27 03:19:32;;;;;;;3.25;0.90;;;;;;;15.92;56.23;103085.56;6285223;22;20007;-80
2023/02/27 03:22:04;;;;;;;1.23;0.70;;;;;;;15.89;56.41;103083.72;6191824;23;20004;-80
2023/02/27 03:24:35;;;;;;;1.95;0.80;;;;;;;15.90;56.24;103079.41;6191613;23;20009;-80
2023/02/27 03:27:02;;;;;;;2.13;0.90;;;;;;;15.90;56.18;103079.41;6256117;22;20094;-80
2023/02/27 03:29:52;;;;;;;1.17;0.60;;;;;;;15.90;56.31;103079.41;6285383;22;20057;-79
2023/02/27 03:32:24;;;;;;;1.02;0.68;;;;;;;15.90;56.50;103074.22;6285239;22;20019;-80
2023/02/27 03:34:49;;;;;;;2.30;0.80;;;;;;;15.89;56.30;103075.91;6282658;22;20053;-80
2023/02/27 03:37:54;;;;;;;2.08;0.70;;;;;;;15.90;56.83;103074.22;6261257;22;20027;-81
2023/02/27 03:40:29;;;;;;;1.38;0.70;;;;;;;15.89;56.18;103064.66;6272406;22;20007;-80
2023/02/27 03:43:23;;;;;;;2.05;0.70;;;;;;;15.90;56.50;103069.91;6298246;22;20023;-80
2023/02/27 03:46:10;;;;;;;1.42;0.70;;;;;;;15.89;56.60;103067.25;6289365;22;20381;-80
2023/02/27 03:48:36;;;;;;;0.80;0.52;;;;;;;15.88;56.20;103068.09;6287237;22;20011;-80
2023/02/27 03:51:02;;;;;;;1.45;0.70;;;;;;;15.88;56.35;103076.75;6286654;22;20041;-80
2023/02/27 03:53:50;;;;;;;1.20;0.70;;;;;;;15.88;56.44;103078.50;6261929;22;20031;-80
2023/02/27 03:56:21;;;;;;;0.68;0.50;;;;;;;15.87;56.28;103074.09;6286557;22;20086;-80
2023/02/27 03:58:46;;;;;;;0.88;0.65;;;;;;;15.89;56.22;103075.91;6285996;22;20084;-80
2023/02/27 04:01:12;;;;;;;1.30;0.80;;;;;;;15.88;56.25;103081.97;6259628;22;20035;-79
2023/02/27 04:03:45;;;;;;;1.88;0.80;;;;;;;15.89;56.17;103088.03;6259007;22;20034;-80
2023/02/27 04:08:54;;;;;;;;;;;;;;;15.88;55.96;103087.16;6290015;22;20146;-80
2023/02/27 04:11:55;;;;;;;1.00;0.60;;;;;;;15.88;56.02;103096.66;6313764;22;20235;-80
2023/02/27 04:14:43;;;;;;;0.80;0.60;;;;;;;15.85;56.34;103092.22;6285809;22;20424;-80
2023/02/27 04:17:23;;;;;;;0.85;0.60;;;;;;;15.86;56.32;103095.72;6226046;22;20011;-80
2023/02/27 04:20:12;;;;;;;1.45;0.60;;;;;;;15.83;56.22;103102.56;6295706;22;19999;-80
2023/02/27 04:22:46;;;;;;;1.98;0.70;;;;;;;15.84;56.29;103096.53;6299061;22;20446;-80
2023/02/27 04:25:31;;;;;;;1.45;0.70;;;;;;;15.83;56.51;103101.72;6291069;22;20003;-81
2023/02/27 04:28:07;;;;;;;1.52;0.60;;;;;;;15.83;56.37;103107.78;6289482;22;20015;-80
2023/02/27 04:30:44;;;;;;;1.27;0.63;;;;;;;15.83;56.71;103109.50;6287860;22;20082;-80
2023/02/27 04:33:13;;;;;;;1.40;0.60;;;;;;;15.82;56.03;103116.38;6286276;22;19999;-80
2023/02/27 04:35:55;;;;;;;1.40;0.80;;;;;;;15.83;56.16;103114.69;6313396;22;20003;-80
2023/02/27 04:38:34;;;;;;;1.35;0.70;;;;;;;15.83;56.54;103115.56;6285889;22;20032;-80
2023/02/27 04:41:22;;;;;;;1.10;0.60;;;;;;;15.84;56.30;103116.44;6285639;22;20007;-80
2023/02/27 04:43:49;;;;;;;1.75;0.75;;;;;;;15.83;56.13;103118.16;6273316;22;20043;-80
2023/02/27 04:46:19;;;;;;;1.85;0.70;;;;;;;15.87;56.11;103120.84;6285285;22;20003;-80
2023/02/27 04:49:11;;;;;;;0.68;0.50;;;;;;;15.85;56.14;103120.78;6312207;22;19995;-80
2023/02/27 04:51:55;;;;;;;1.30;0.60;;;;;;;15.87;55.88;103118.25;6311112;22;20026;-80
2023/02/27 04:54:23;;;;;;;;;;;;;;;15.86;56.29;103113.91;6287330;22;20003;-80
2023/02/27 04:56:54;;;;;;;1.52;0.65;;;;;;;15.86;55.84;103111.31;6283727;22;19921;-80
2023/02/27 04:59:25;;;;;;;1.02;0.50;;;;;;;15.84;56.33;103116.44;6283565;22;20090;-79
2023/02/27 05:01:54;;;;;;;0.88;0.60;;;;;;;15.84;56.38;103113.84;6282422;22;20027;-80
2023/02/27 05:04:23;;;;;;;1.40;0.70;;;;;;;15.84;56.33;103117.31;6283191;22;20098;-79
2023/02/27 05:06:54;;;;;;;1.45;0.65;;;;;;;15.84;56.00;103116.44;6310580;22;20062;-80
2023/02/27 05:09:45;;;;;;;1.83;0.60;;;;;;;15.84;56.63;103119.03;6312217;22;20003;-80
2023/02/27 05:12:18;;;;;;;2.00;0.80;;;;;;;15.84;56.05;103122.50;6283683;22;20042;-80
2023/02/27 05:14:46;;;;;;;1.98;0.90;;;;;;;15.86;56.04;103121.69;6285344;22;20003;-80
2023/02/27 05:17:30;;;;;;;1.58;0.77;;;;;;;15.84;55.93;103130.28;6286007;22;20082;-80
2023/02/27 05:19:56;;;;;;;1.30;0.60;;;;;;;15.85;56.21;103120.78;6312682;22;20003;-80
2023/02/27 05:22:37;;;;;;;2.28;0.70;;;;;;;15.85;56.06;103123.38;6261798;22;20014;-79
2023/02/27 05:25:23;;;;;;;1.55;0.70;;;;;;;15.84;55.93;103122.50;6287898;22;20031;-79
2023/02/27 05:28:14;;;;;;;1.15;0.60;;;;;;;15.84;56.04;103119.03;6286898;22;20019;-79
2023/02/27 05:30:50;;;;;;;1.90;0.70;;;;;;;15.84;55.88;103124.22;6286392;22;20003;-79
2023/02/27 05:33:28;;;;;;;0.95;0.68;;;;;;;15.83;55.88;103131.13;6312999;22;19995;-79
2023/02/27 05:36:06;;;;;;;1.60;0.65;;;;;;;15.83;55.82;103117.28;6287101;22;20003;-78
2023/02/27 05:38:43;;;;;;;2.38;0.68;;;;;;;15.84;56.10;103130.28;6284445;22;20003;-79
2023/02/27 05:41:11;;;;;;;1.30;0.50;;;;;;;15.84;55.72;103135.47;6283638;22;20006;-80
2023/02/27 05:43:49;;;;;;;2.72;0.60;;;;;;;15.83;56.06;103133.72;6283550;22;20007;-79
2023/02/27 05:46:29;;;;;;;0.75;0.60;;;;;;;15.83;56.10;103131.13;6284200;22;20442;-79
2023/02/27 05:49:00;;;;;;;2.10;0.70;;;;;;;15.83;55.97;103130.25;6294620;22;20010;-79
2023/02/27 05:51:30;;;;;;;1.17;0.60;;;;;;;15.84;55.87;103132.00;6288625;22;20026;-79
2023/02/27 05:54:05;;;;;;;1.23;0.60;;;;;;;15.83;55.74;103128.53;6285917;22;20007;-79
2023/02/27 05:56:32;;;;;;;1.23;0.50;;;;;;;15.84;55.80;103132.88;6285246;22;20145;-80
2023/02/27 05:59:10;;;;;;;1.05;0.52;;;;;;;15.83;56.16;103131.13;6283779;22;20010;-78
2023/02/27 06:01:36;;;;;;;0.85;0.60;;;;;;;15.84;55.77;103132.88;6282960;22;20014;-79
2023/02/27 06:04:01;;;;;;;0.80;0.57;;;;;;;15.84;55.90;103137.22;6269406;22;20027;-79
2023/02/27 06:06:29;;;;;;;1.33;0.60;;;;;;;15.84;55.80;103138.09;6244227;22;20011;-82
2023/02/27 06:08:54;;;;;;;1.45;0.70;;;;;;;15.82;55.82;103137.16;6298977;22;20011;-81
2023/02/27 06:11:20;;;;;;;1.08;0.70;;;;;;;15.84;55.87;103145.88;6299561;22;20015;-81
2023/02/27 06:13:47;;;;;;;1.27;0.63;;;;;;;15.85;55.66;103151.94;6271150;22;20034;-80
2023/02/27 06:16:14;;;;;;;3.25;0.52;;;;;;;15.85;55.55;103151.94;6269553;22;20348;-80
2023/02/27 06:18:40;;;;;;;1.40;0.70;;;;;;;15.84;55.51;103152.78;6318564;22;19999;-79
2023/02/27 06:21:05;;;;;;;2.58;0.70;;;;;;;15.85;55.39;103157.13;6291648;22;20010;-80
2023/02/27 06:23:31;;;;;;;1.42;0.70;;;;;;;15.86;55.71;103161.50;6291018;22;20030;-80
2023/02/27 06:25:57;;;;;;;1.15;0.60;;;;;;;15.85;55.55;103162.31;6264263;22;19999;-80
2023/02/27 06:28:22;;;;;;;3.35;0.65;;;;;;;15.86;55.62;103164.09;6291170;22;20030;-80
2023/02/27 06:30:53;;;;;;;2.67;0.70;;;;;;;15.86;55.40;103165.81;6317270;22;20007;-80
2023/02/27 06:33:18;;;;;;;1.63;0.68;;;;;;;15.86;55.92;103171.91;6293002;22;20011;-81
2023/02/27 06:35:48;;;;;;;1.15;0.70;;;;;;;15.85;55.59;103177.91;6297861;22;20002;-82
2023/02/27 06:38:14;;;;;;;0.95;0.60;;;;;;;15.86;55.68;103177.09;6296176;22;20505;-82
2023/02/27 06:41:08;;;;;;;1.65;0.77;;;;;;;15.87;55.51;103184.03;6297401;22;20003;-82
2023/02/27 06:43:35;;;;;;;;;;;;;;;15.87;55.47;103176.25;6323509;22;20378;-78
2023/02/27 06:46:02;;;;;;;1.13;0.63;;;;;;;15.89;55.67;103184.09;6312441;22;19925;-78
2023/02/27 06:48:59;;;;;;;1.85;1.00;;;;;;;15.90;55.45;103178.09;6293774;22;20049;-83
2023/02/27 06:55:19;;;;;;;17.70;3.80;;;;;;;16.39;54.19;103175.41;6324629;22;20019;-83
2023/02/27 06:57:46;;;;;;;13.65;3.53;;;;;;;16.54;54.25;103176.75;6283183;22;20028;-78
2023/02/27 07:00:12;;;;;;;9.75;2.80;;;;;;;16.61;54.01;103184.81;6290680;22;20035;-80
2023/02/27 07:02:38;;;;;;;7.57;2.30;;;;;;;16.69;53.49;103187.63;6284860;22;20023;-78
2023/02/27 07:05:06;;;;;;;8.18;2.30;;;;;;;16.75;53.31;103192.16;6284408;22;20041;-78
2023/02/27 07:07:31;;;;;;;6.18;1.90;;;;;;;16.77;53.67;103195.69;6283626;22;20467;-78
2023/02/27 07:09:57;;;;;;;5.57;1.95;;;;;;;16.80;53.03;103195.81;6257315;22;20061;-78
2023/02/27 07:12:22;;;;;;;7.18;2.15;;;;;;;16.83;55.07;103194.19;6256541;22;20035;-78
2023/02/27 07:14:48;;;;;;;4.05;1.50;;;;;;;16.85;52.54;103202.94;6258126;22;20011;-78
2023/02/27 07:17:13;;;;;;;7.25;1.65;;;;;;;16.89;52.58;103197.81;6283916;22;20015;-78
2023/02/27 07:19:39;;;;;;;6.25;1.77;;;;;;;16.90;52.95;103200.47;6284539;22;20424;-78
2023/02/27 07:22:04;;;;;;;3.58;1.48;;;;;;;16.92;52.28;103195.28;6234192;22;20018;-78
2023/02/27 07:24:30;;;;;;;2.95;1.50;;;;;;;16.94;52.57;103198.81;6258500;22;20003;-78
2023/02/27 07:26:55;;;;;;;4.32;1.65;;;;;;;16.94;52.33;103198.81;6258734;22;20007;-78
2023/02/27 07:29:20;;;;;;;3.20;1.45;;;;;;;16.96;52.34;103195.47;6258704;22;20420;-78
2023/02/27 07:31:47;;;;;;;3.45;1.52;;;;;;;16.97;52.61;103197.22;6283230;22;20041;-78
2023/02/27 07:34:14;;;;;;;4.10;1.70;;;;;;;17.01;52.90;103200.78;6283382;22;19995;-77
2023/02/27 07:36:40;;;;;;;4.18;1.50;;;;;;;17.01;51.87;103201.66;6258445;22;20399;-78
2023/02/27 07:39:07;;;;;;;3.85;1.50;;;;;;;17.03;51.89;103191.31;6283611;22;20015;-77
2023/02/27 07:41:33;;;;;;;2.65;1.48;;;;;;;17.06;52.21;103200.09;6258346;22;20018;-77
2023/02/27 07:43:58;;;;;;;4.03;1.50;;;;;;;17.06;52.33;103202.69;6259514;22;20007;-78
2023/02/27 07:46:25;;;;;;;3.30;1.40;;;;;;;17.07;51.88;103206.16;6285033;22;20091;-77
2023/02/27 07:48:51;;;;;;;3.40;1.45;;;;;;;17.09;51.69;103209.69;6284147;22;20011;-78
2023/02/27 07:51:17;;;;;;;3.13;1.52;;;;;;;17.09;52.21;103212.28;6283227;22;20447;-77
2023/02/27 07:53:42;;;;;;;2.83;1.15;;;;;;;17.12;51.67;103195.91;6258144;22;20007;-77
2023/02/27 07:56:08;;;;;;;3.75;1.35;;;;;;;17.12;51.55;103206.31;6289194;22;20035;-77
2023/02/27 07:58:33;;;;;;;3.53;1.55;;;;;;;17.13;51.43;103214.16;6316367;22;20025;-77
2023/02/27 08:00:58;;;;;;;4.07;1.40;;;;;;;17.18;51.50;103216.88;6265590;22;20098;-77
2023/02/27 08:03:24;;;;;;;4.25;1.25;;;;;;;17.21;51.45;103217.00;6258929;22;20469;-77
2023/02/27 08:05:49;;;;;;;2.65;1.30;;;;;;;17.25;51.08;103216.25;6259178;22;20007;-77
2023/02/27 08:08:17;;;;;;;2.13;1.20;;;;;;;17.28;51.18;103214.59;6285034;22;20003;-77
2023/02/27 08:10:42;;;;;;;3.25;1.38;;;;;;;17.46;50.50;103205.56;6291020;22;20011;-78
2023/02/27 08:13:08;;;;;;;3.10;1.35;;;;;;;17.76;50.21;103208.16;6288211;22;20030;-77
2023/02/27 08:15:33;;;;;;;3.50;1.30;;;;;;;18.30;48.77;103213.09;6312240;22;20030;-77
2023/02/27 08:17:59;;;;;;;2.35;1.27;;;;;;;18.67;47.57;103213.13;6232966;22;20011;-77
2023/02/27 08:20:24;;;;;;;2.80;1.20;;;;;;;18.78;47.41;103214.28;6258030;22;20015;-77
2023/02/27 08:22:50;;;;;;;4.65;1.38;;;;;;;18.78;46.90;103218.63;6257672;22;20039;-77
2023/02/27 08:25:16;;;;;;;2.78;1.40;;;;;;;18.73;47.04;103217.56;6283052;22;20065;-78
2023/02/27 08:27:42;;;;;;;2.45;1.30;;;;;;;18.66;47.11;103217.47;6282962;22;20006;-78
2023/02/27 08:30:12;;;;;;;2.28;1.08;;;;;;;18.58;47.28;103216.38;6282513;22;20003;-78
2023/02/27 08:32:38;;;;;;;2.92;1.38;;;;;;;18.48;47.52;103219.59;6284796;22;19999;-79
2023/02/27 08:35:04;;;;;;;2.15;1.13;;;;;;;18.34;48.64;103221.00;6290995;22;20008;-80
2023/02/27 08:37:30;;;;;;;2.88;1.35;;;;;;;18.21;48.63;103228.50;6328635;22;20041;-80
2023/02/27 08:39:55;;;;;;;2.97;1.23;;;;;;;18.16;48.67;103227.50;6328560;22;20026;-79
2023/02/27 08:42:21;;;;;;;2.15;1.10;;;;;;;18.12;48.83;103232.56;6273094;22;20004;-80
2023/02/27 08:44:49;;;;;;;3.53;1.33;;;;;;;18.08;48.81;103229.91;6294567;22;20339;-81
2023/02/27 08:47:24;;;;;;;3.00;1.40;;;;;;;18.04;49.08;103230.66;6269853;22;20003;-78
2023/02/27 08:49:52;;;;;;;2.63;1.10;;;;;;;18.01;48.55;103235.81;6286141;22;19994;-80
2023/02/27 08:52:56;;;;;;;3.30;1.40;;;;;;;17.96;48.95;103233.91;6241688;22;20015;-81
2023/02/27 09:02:30;;;;;;;4.50;1.23;;;;;;;17.87;48.98;103234.53;6209359;23;20020;-82
2023/02/27 09:05:58;;;;;;;2.25;1.10;;;;;;;17.82;49.21;103242.22;6157766;23;20021;-82
2023/02/27 09:09:15;;;;;;;2.20;1.00;;;;;;;17.80;49.43;103249.06;6189637;23;20020;-82
2023/02/27 09:12:47;;;;;;;;;;;;;;;;;;;;;
2023/02/27 09:15:08;;;;;;;;;;;;;;;17.73;49.38;103243.66;6180295;23;20016;-82
2023/02/27 09:18:01;;;;;;;2.00;0.90;;;;;;;17.71;49.51;103238.41;6179101;23;19908;-81
2023/02/27 09:27:19;;;;;;;2.58;1.10;;;;;;;17.65;49.45;103252.13;6014323;23;20018;-81
2023/02/27 09:29:54;;;;;;;2.03;0.90;;;;;;;17.67;49.30;103247.84;6058694;23;20007;-81
2023/02/27 09:32:37;;;;;;;2.63;0.90;;;;;;;17.66;49.53;103247.81;6072091;23;20014;-82
2023/02/27 09:45:08;;;;;;;2.40;0.80;;;;;;;17.60;49.20;103263.25;5987982;23;20088;-83
2023/02/27 09:48:13;;;;;;;2.10;1.00;;;;;;;17.59;49.52;103261.47;6033513;23;20015;-82
2023/02/27 10:01:18;;;;;;;2.35;0.93;;;;;;;17.59;49.50;103266.69;6032987;23;20083;-82
2023/02/27 10:11:24;;;;;;;1.60;0.70;;;;;;;17.62;49.58;103272.00;5976867;23;20028;-83
2023/02/27 10:17:54;;;;;;;2.00;0.80;;;;;;;17.63;49.45;103268.53;6029663;23;20010;-83
2023/02/27 10:21:07;;;;;;;1.58;0.80;;;;;;;17.64;49.80;103265.13;6119769;23;20005;-82
2023/02/27 10:24:35;;;;;;;1.30;0.77;;;;;;;17.64;49.88;103271.22;6131465;23;20037;-82
2023/02/27 10:27:10;;;;;;;1.83;0.77;;;;;;;17.63;50.35;103261.59;6123478;23;20010;-83
2023/02/27 10:30:48;;;;;;;1.60;0.77;;;;;;;17.61;50.12;103265.88;6148897;23;20058;-82
2023/02/27 10:34:15;;;;;;;2.35;0.70;;;;;;;17.62;49.58;103274.59;6108550;23;20031;-82
2023/02/27 10:37:10;;;;;;;3.03;0.80;;;;;;;17.61;49.81;103276.31;6059041;23;20047;-82
2023/02/27 10:47:03;;;;;;;1.85;0.80;;;;;;;17.67;49.70;103279.09;6121876;23;20066;-83
2023/02/27 10:49:53;;;;;;;1.10;0.68;;;;;;;17.66;49.86;103276.47;6177086;23;20016;-83
2023/02/27 10:56:16;;;;;;;2.95;0.93;;;;;;;17.68;49.81;103278.28;6177395;23;20036;-83
2023/02/27 10:58:46;;;;;;;1.30;0.70;;;;;;;17.68;49.89;103273.06;6129970;23;20018;-82
2023/02/27 11:12:46;;;;;;;1.40;0.70;;;;;;;17.66;49.76;103269.53;6121657;23;20068;-81
2023/02/27 11:15:45;;;;;;;0.77;0.60;;;;;;;17.64;49.14;103255.59;6070574;23;19998;-83
2023/02/27 11:22:22;;;;;;;;;;;;;;;;;;;;;
2023/02/27 11:25:18;;;;;;;1.10;0.52;;;;;;;17.67;49.53;103253.06;6063233;23;20027;-83
2023/02/27 11:31:48;;;;;;;1.58;0.63;;;;;;;17.69;49.35;103253.97;6034604;23;20146;-83
2023/02/27 11:34:51;;;;;;;0.75;0.60;;;;;;;17.69;48.71;103246.16;6005991;23;20012;-83
2023/02/27 11:41:24;;;;;;;1.17;0.40;;;;;;;17.73;48.74;103238.47;6035191;23;20023;-83
2023/02/27 11:44:05;;;;;;;1.10;0.50;;;;;;;17.72;48.52;103242.75;6058838;23;20022;-83
2023/02/27 11:47:02;;;;;;;1.83;0.68;;;;;;;17.74;49.15;103235.88;6035027;23;20003;-83
2023/02/27 11:50:25;;;;;;;1.27;0.60;;;;;;;17.76;48.39;103221.19;6045659;23;20008;-84
2023/02/27 11:56:32;;;;;;;1.05;0.60;;;;;;;17.78;48.44;103222.09;6141315;23;20028;-82
2023/02/27 12:02:59;;;;;;;0.68;0.50;;;;;;;17.82;48.26;103212.69;6086022;23;20094;-82
2023/02/27 12:06:08;;;;;;;1.63;0.60;;;;;;;17.81;48.46;103219.59;6118687;23;20105;-83
2023/02/27 12:26:22;;;;;;;1.73;0.70;;;;;;;17.73;48.42;103197.66;6231704;22;20024;-79
2023/02/27 12:32:57;;;;;;;1.10;0.60;;;;;;;17.73;48.22;103188.97;6147689;23;20045;-82
2023/02/27 12:39:31;;;;;;;1.52;0.70;;;;;;;17.74;48.39;103201.16;6006158;23;20035;-83
2023/02/27 12:49:13;;;;;;;1.30;0.70;;;;;;;17.75;48.14;103193.38;6123041;23;20048;-83
2023/02/27 12:52:06;;;;;;;0.77;0.55;;;;;;;17.75;48.05;103196.00;6093248;23;20022;-83
2023/02/27 12:55:09;;;;;;;3.08;0.60;;;;;;;17.76;48.16;103186.44;6210441;23;20009;-82
2023/02/27 12:57:59;;;;;;;2.63;0.40;;;;;;;17.76;48.03;103192.53;6204048;23;20017;-81
2023/02/27 13:04:26;;;;;;;0.88;0.50;;;;;;;17.80;48.10;103193.50;6271826;23;20019;-82
2023/02/27 13:14:23;;;;;;;3.53;0.57;;;;;;;17.82;47.87;103192.72;6243047;23;20027;-83
2023/02/27 13:27:36;;;;;;;1.15;0.60;;;;;;;17.89;47.42;103183.34;6241886;23;20039;-83
2023/02/27 13:30:42;;;;;;;1.38;0.57;;;;;;;17.94;47.63;103192.16;6215822;23;20023;-83
2023/02/27 14:15:56;;;;;;;1.35;0.50;;;;;;;17.76;47.95;103174.31;6336291;22;20066;-84
2023/02/27 14:18:55;;;;;;;0.73;0.52;;;;;;;17.76;47.68;103169.09;6305056;22;20023;-82
2023/02/27 14:21:52;;;;;;;3.53;0.70;;;;;;;17.77;47.68;103168.28;6325941;22;20041;-82
2023/02/27 14:24:40;;;;;;;1.98;0.75;;;;;;;17.75;47.77;103169.94;6302024;22;20004;-82
2023/02/27 14:27:47;;;;;;;1.33;0.77;;;;;;;17.74;47.54;103164.69;6303678;22;20021;-82
2023/02/27 14:30:38;;;;;;;1.13;0.60;;;;;;;17.73;47.60;103169.03;6330890;22;20066;-82
2023/02/27 14:36:48;;;;;;;2.78;0.65;;;;;;;17.75;47.63;103167.34;6332002;22;20073;-83
2023/02/27 14:43:13;;;;;;;1.17;0.47;;;;;;;17.76;47.82;103166.50;6269778;22;20007;-81
2023/02/27 14:56:20;;;;;;;1.45;0.57;;;;;;;17.59;48.68;103167.75;6211374;23;20436;-83
2023/02/27 15:20:23;;;;;;;1.30;0.63;;;;;;;17.53;49.01;103172.78;6035377;23;20034;-84
2023/02/27 15:34:01;;;;;;;1.95;0.60;;;;;;;17.51;49.13;103158.84;6036646;23;20019;-84
2023/02/27 15:40:41;;;;;;;1.60;0.50;;;;;;;17.50;49.11;103167.50;5982409;23;20008;-84
2023/02/27 15:54:28;;;;;;;1.42;0.50;;;;;;;17.47;48.60;103163.97;6212946;23;20076;-84
2023/02/27 16:07:42;;;;;;;0.88;0.40;;;;;;;17.44;48.84;103165.59;6183255;23;20020;-84
2023/02/27 16:21:11;;;;;;;1.23;0.60;;;;;;;17.40;48.79;103172.47;6168754;23;20161;-85
2023/02/27 16:24:18;;;;;;;1.50;0.70;;;;;;;17.40;48.61;103185.47;6160856;23;20018;-80
2023/02/27 16:27:15;;;;;;;1.40;0.70;;;;;;;17.42;47.57;103181.19;6170495;23;20485;-80
2023/02/27 16:29:44;;;;;;;1.40;0.60;;;;;;;17.45;47.85;103180.41;6139235;23;20071;-80
2023/02/27 16:32:50;;;;;;;1.45;0.60;;;;;;;17.44;48.47;103189.03;6138226;23;20016;-81
2023/02/27 16:35:18;;;;;;;4.57;0.57;;;;;;;17.44;48.30;103189.03;6122112;23;20005;-80
2023/02/27 16:37:45;;;;;;;1.08;0.70;;;;;;;17.42;47.99;103194.22;6157054;23;20111;-78
2023/02/27 16:40:20;;;;;;;6.60;0.93;;;;;;;17.42;48.41;103191.59;6159961;23;20022;-82
2023/02/27 16:42:46;;;;;;;7.85;1.30;;;;;;;17.42;48.23;103191.59;6133062;23;20048;-78
2023/02/27 16:45:16;;;;;;;7.18;1.90;;;;;;;17.42;48.60;103185.50;6156532;23;20037;-78
2023/02/27 16:47:42;;;;;;;5.40;1.55;;;;;;;17.45;48.11;103190.81;6156455;23;20441;-77